Airfield :
LOGIN :

Register | Disclaimer

   EN    FR    IT 

 










Legend :    VFR   Marginal VFR   IFR   Intensive IFR   Very Intensive IFR
Visi :
Ceiling :
>= 8 km
>= 3000ft
5 to 8 km
1000 to 3000 ft
1500m to 5 km
500 to 1000 ft
800 to 1500m
200 to 500 ft
< 800m
< 200 ft
Symbols :   Thunderstorms  Fog  Heavy snow  Heavy precipitations  Wind > 20 kt
SIGMETs :     Misc.  Thunderstorms  Icing  Turbulence  Mountain Waves  Volcanic Ashes






- Airport Elevation : 25 ft
- IATA code : QCY


EGXC - RAF Coningsby

CURRENT METAR :
  • 281350Z 28006KT 7000 BR SCT004 BKN015 07/07 Q1000 TEMPO SCT006 RMK YLO2 TEMPO YLO1

EXPIRED METARs :
  • 281320Z 26007KT 3000 -DZ SCT003 OVC008 07/06 Q1000 TEMPO 5000 RMK YLO2 TEMPO YLO2
  • 281315Z 26007KT 2500 DZ OVC003 07/06 Q1000 TEMPO 5000 RMK YLO2 TEMPO YLO2
  • 281250Z 25005KT 7000 -DZ BKN003 OVC006 07/06 Q1000 TEMPO 3000 DZ RMK YLO2 TEMPO YLO2
  • 281220Z 09002KT 7000 -DZ BKN003 OVC006 07/06 Q0999 TEMPO 3000 DZ RMK YLO2 TEMPO YLO2
  • 281150Z 09005KT 7000 BR BKN003 OVC006 07/06 Q0999 TEMPO 2000 DZ BKN002 RMK YLO2 TEMPO AMB
  • 281120Z 09006KT 5000 -DZ BKN003 OVC006 06/06 Q0999 TEMPO 2000 DZ BKN002 RMK YLO2 TEMPO AMB
  • 281112Z 09007KT 7000 -DZ BKN003 OVC006 06/06 Q0999 TEMPO 2000 DX BKN002 RMK YLO2 TEMPO AMB

TAF TAF EGXC
Valid from the 28 at 12:00 until the 29 at 06:00 UTC


281054Z 2812/2906 16008KT 7000 -RA BKN006
TEMPO 2812/2815 3000 -DZ BKN004
PROB30
TEMPO 2812/2815 2000 DZ BKN002
BECMG 2815/2817 9999 NSW SCT020 BKN030
TEMPO 2817/2819 BKN030
TEMPO 2819/2823 4000 RA BKN008
PROB30
TEMPO 2819/2823 3000 +RA SCT005 BKN008
BECMG 2823/2902 SCT030



MET'MAP, your aeronautical weather chart ! - Copyright ORBIFLY December 2007 - Disclaimer

ORBIFLY MET'MAP TEAM :

Programming & Development : Alexandra Zaïnal
Concept & original design : Baudouin d'Aumeries
Assistance for programming : Marc-Olivier Méhu
Technical & hardware support : Manuel Goepfert

Contact : metmap@orbifly.com




SOURCES & CREDITS :

   NOAA